Marshall Don Hunter Sr Airport Marshall US
ICAO: PADM
IATA:
Category: Medium
Scheduled Services:

Elevation: 103 ft
TransAlt. 18000 ft.

Airport Communications:
ANCHORAGE CNTR:132.3
CTAF:122.9
ST MARYS RDO:124

PADM Zoom In..

Runways:

(A) RW 07 length 3200 ft width 100 ft
---- / hdg 70

(B) RW 25 length 3200 ft width 100 ft
---- / hdg 250

Location; PADM
Day. 19 / Time. 23.34 Zulu
* Altimeter: 29.91
* Temperature: 14° c. 57.2°f.
* Wind from: 140° Speed 08 kn.
Dewpoint: 13° c.
Visibility: 10 Statute Miles.
Clouds: Few 1500 ft.
Clouds: Broken 2000 ft.
Clouds: Overcast 5500 ft.
Conditions: Light Rain.

PADM 192334Z AUTO 14008KT 10SM -RA FEW015 BKN020 OVC055 14/13 A2991 RMK AO2 P0000


Wind From 140°
Speed 08 kn.

 
 
jpsmedia.com for Web Design worldairports.se 2018   terms of use